sensor_id;sensor_type;location;lat;lon;timestamp;P1;durP1;ratioP1;P2;durP2;ratioP2
58581;SDS011;44361;51.476;5.700;2022-09-09T00:04:35;6.82;;;2.38;;
58581;SDS011;44361;51.476;5.700;2022-09-09T00:07:10;4.20;;;2.05;;
58581;SDS011;44361;51.476;5.700;2022-09-09T00:09:47;4.45;;;2.17;;
58581;SDS011;44361;51.476;5.700;2022-09-09T00:12:32;3.28;;;2.20;;
58581;SDS011;44361;51.476;5.700;2022-09-09T00:15:07;4.40;;;2.30;;
58581;SDS011;44361;51.476;5.700;2022-09-09T00:17:39;2.75;;;2.22;;
58581;SDS011;44361;51.476;5.700;2022-09-09T00:20:18;3.08;;;2.10;;
58581;SDS011;44361;51.476;5.700;2022-09-09T00:23:48;5.25;;;2.72;;
58581;SDS011;44361;51.476;5.700;2022-09-09T00:28:47;3.28;;;2.30;;
58581;SDS011;44361;51.476;5.700;2022-09-09T00:31:20;5.13;;;2.40;;
58581;SDS011;44361;51.476;5.700;2022-09-09T00:33:50;4.28;;;2.30;;
58581;SDS011;44361;51.476;5.700;2022-09-09T00:36:18;4.80;;;2.50;;
58581;SDS011;44361;51.476;5.700;2022-09-09T00:38:57;3.25;;;2.20;;
58581;SDS011;44361;51.476;5.700;2022-09-09T00:44:38;2.90;;;2.30;;
58581;SDS011;44361;51.476;5.700;2022-09-09T00:50:05;3.33;;;2.40;;
58581;SDS011;44361;51.476;5.700;2022-09-09T00:55:33;3.78;;;2.33;;
58581;SDS011;44361;51.476;5.700;2022-09-09T00:58:09;3.28;;;2.15;;
58581;SDS011;44361;51.476;5.700;2022-09-09T01:00:39;6.82;;;2.13;;
58581;SDS011;44361;51.476;5.700;2022-09-09T01:11:04;4.93;;;2.30;;
58581;SDS011;44361;51.476;5.700;2022-09-09T01:13:33;5.20;;;2.55;;
58581;SDS011;44361;51.476;5.700;2022-09-09T01:16:01;4.72;;;2.53;;
58581;SDS011;44361;51.476;5.700;2022-09-09T01:18:31;3.90;;;2.53;;
58581;SDS011;44361;51.476;5.700;2022-09-09T01:26:39;7.43;;;2.65;;
58581;SDS011;44361;51.476;5.700;2022-09-09T01:29:08;5.50;;;3.00;;
58581;SDS011;44361;51.476;5.700;2022-09-09T01:31:37;8.15;;;3.38;;
58581;SDS011;44361;51.476;5.700;2022-09-09T01:34:12;7.18;;;3.20;;
58581;SDS011;44361;51.476;5.700;2022-09-09T01:39:35;4.72;;;2.97;;
58581;SDS011;44361;51.476;5.700;2022-09-09T01:42:02;9.32;;;4.00;;
58581;SDS011;44361;51.476;5.700;2022-09-09T01:44:30;8.07;;;3.30;;
58581;SDS011;44361;51.476;5.700;2022-09-09T01:46:56;8.70;;;3.10;;
58581;SDS011;44361;51.476;5.700;2022-09-09T01:49:22;4.82;;;3.33;;
58581;SDS011;44361;51.476;5.700;2022-09-09T01:51:52;7.57;;;3.17;;
58581;SDS011;44361;51.476;5.700;2022-09-09T01:54:19;10.95;;;3.88;;
58581;SDS011;44361;51.476;5.700;2022-09-09T01:56:49;6.28;;;3.53;;
58581;SDS011;44361;51.476;5.700;2022-09-09T02:04:31;6.28;;;3.70;;
58581;SDS011;44361;51.476;5.700;2022-09-09T02:07:19;8.02;;;4.15;;
58581;SDS011;44361;51.476;5.700;2022-09-09T02:09:50;11.27;;;3.92;;
58581;SDS011;44361;51.476;5.700;2022-09-09T02:12:22;4.45;;;3.47;;
58581;SDS011;44361;51.476;5.700;2022-09-09T02:14:52;7.60;;;4.18;;
58581;SDS011;44361;51.476;5.700;2022-09-09T02:17:24;10.63;;;4.22;;
58581;SDS011;44361;51.476;5.700;2022-09-09T02:19:56;10.95;;;4.07;;
58581;SDS011;44361;51.476;5.700;2022-09-09T02:22:27;7.80;;;4.15;;
58581;SDS011;44361;51.476;5.700;2022-09-09T02:24:54;9.57;;;4.35;;
58581;SDS011;44361;51.476;5.700;2022-09-09T02:27:24;9.40;;;4.15;;
58581;SDS011;44361;51.476;5.700;2022-09-09T02:29:50;7.43;;;4.70;;
58581;SDS011;44361;51.476;5.700;2022-09-09T02:32:18;7.22;;;3.85;;
58581;SDS011;44361;51.476;5.700;2022-09-09T02:34:51;5.78;;;4.07;;
58581;SDS011;44361;51.476;5.700;2022-09-09T02:37:21;9.30;;;4.05;;
58581;SDS011;44361;51.476;5.700;2022-09-09T02:39:50;7.07;;;3.67;;
58581;SDS011;44361;51.476;5.700;2022-09-09T02:42:15;10.27;;;4.43;;
58581;SDS011;44361;51.476;5.700;2022-09-09T02:44:41;8.55;;;4.82;;
58581;SDS011;44361;51.476;5.700;2022-09-09T02:47:10;8.55;;;4.75;;
58581;SDS011;44361;51.476;5.700;2022-09-09T02:50:11;11.88;;;4.82;;
58581;SDS011;44361;51.476;5.700;2022-09-09T02:55:39;11.55;;;4.40;;
58581;SDS011;44361;51.476;5.700;2022-09-09T02:58:13;9.05;;;4.60;;
58581;SDS011;44361;51.476;5.700;2022-09-09T03:00:45;10.50;;;3.67;;
58581;SDS011;44361;51.476;5.700;2022-09-09T03:03:12;7.57;;;3.83;;
58581;SDS011;44361;51.476;5.700;2022-09-09T03:05:38;8.70;;;3.88;;
58581;SDS011;44361;51.476;5.700;2022-09-09T03:08:04;10.82;;;3.95;;
58581;SDS011;44361;51.476;5.700;2022-09-09T03:10:30;15.25;;;4.85;;
58581;SDS011;44361;51.476;5.700;2022-09-09T03:12:56;11.30;;;4.50;;
58581;SDS011;44361;51.476;5.700;2022-09-09T03:15:22;13.55;;;4.78;;
58581;SDS011;44361;51.476;5.700;2022-09-09T03:17:48;6.75;;;4.05;;
58581;SDS011;44361;51.476;5.700;2022-09-09T03:20:14;10.82;;;4.13;;
58581;SDS011;44361;51.476;5.700;2022-09-09T03:22:39;7.85;;;4.07;;
58581;SDS011;44361;51.476;5.700;2022-09-09T03:25:05;11.27;;;4.85;;
58581;SDS011;44361;51.476;5.700;2022-09-09T03:27:31;13.02;;;4.35;;
58581;SDS011;44361;51.476;5.700;2022-09-09T03:29:57;10.82;;;4.78;;
58581;SDS011;44361;51.476;5.700;2022-09-09T03:32:23;7.00;;;4.07;;
58581;SDS011;44361;51.476;5.700;2022-09-09T03:34:50;12.05;;;4.55;;
58581;SDS011;44361;51.476;5.700;2022-09-09T03:37:17;14.15;;;4.22;;
58581;SDS011;44361;51.476;5.700;2022-09-09T03:39:43;9.80;;;5.85;;
58581;SDS011;44361;51.476;5.700;2022-09-09T03:42:09;10.35;;;3.95;;
58581;SDS011;44361;51.476;5.700;2022-09-09T03:44:39;10.75;;;3.92;;
58581;SDS011;44361;51.476;5.700;2022-09-09T03:47:04;15.20;;;3.90;;
58581;SDS011;44361;51.476;5.700;2022-09-09T03:49:31;8.93;;;4.07;;
58581;SDS011;44361;51.476;5.700;2022-09-09T03:51:56;8.98;;;3.95;;
58581;SDS011;44361;51.476;5.700;2022-09-09T03:54:24;10.20;;;3.80;;
58581;SDS011;44361;51.476;5.700;2022-09-09T03:56:50;11.70;;;4.10;;
58581;SDS011;44361;51.476;5.700;2022-09-09T03:59:16;10.88;;;3.90;;
58581;SDS011;44361;51.476;5.700;2022-09-09T04:01:41;9.73;;;4.00;;
58581;SDS011;44361;51.476;5.700;2022-09-09T04:04:07;12.77;;;3.92;;
58581;SDS011;44361;51.476;5.700;2022-09-09T04:06:33;7.43;;;3.90;;
58581;SDS011;44361;51.476;5.700;2022-09-09T04:09:00;13.35;;;3.92;;
58581;SDS011;44361;51.476;5.700;2022-09-09T04:11:27;11.23;;;3.50;;
58581;SDS011;44361;51.476;5.700;2022-09-09T04:13:53;8.45;;;3.95;;
58581;SDS011;44361;51.476;5.700;2022-09-09T04:16:18;11.02;;;4.40;;
58581;SDS011;44361;51.476;5.700;2022-09-09T04:18:45;8.38;;;4.18;;
58581;SDS011;44361;51.476;5.700;2022-09-09T04:21:11;9.00;;;3.90;;
58581;SDS011;44361;51.476;5.700;2022-09-09T04:23:37;9.27;;;3.75;;
58581;SDS011;44361;51.476;5.700;2022-09-09T04:26:03;15.35;;;4.15;;
58581;SDS011;44361;51.476;5.700;2022-09-09T04:28:29;14.93;;;3.92;;
58581;SDS011;44361;51.476;5.700;2022-09-09T04:30:56;7.95;;;4.18;;
58581;SDS011;44361;51.476;5.700;2022-09-09T04:33:28;16.33;;;3.50;;
58581;SDS011;44361;51.476;5.700;2022-09-09T04:35:53;10.82;;;4.10;;
58581;SDS011;44361;51.476;5.700;2022-09-09T04:38:19;12.55;;;4.45;;
58581;SDS011;44361;51.476;5.700;2022-09-09T04:40:47;7.57;;;3.70;;
58581;SDS011;44361;51.476;5.700;2022-09-09T04:43:14;8.93;;;3.67;;
58581;SDS011;44361;51.476;5.700;2022-09-09T04:45:40;6.93;;;3.30;;
58581;SDS011;44361;51.476;5.700;2022-09-09T04:48:06;12.88;;;3.42;;
58581;SDS011;44361;51.476;5.700;2022-09-09T04:50:32;10.20;;;3.78;;
58581;SDS011;44361;51.476;5.700;2022-09-09T04:52:59;10.40;;;3.40;;
58581;SDS011;44361;51.476;5.700;2022-09-09T04:55:26;12.07;;;3.90;;
58581;SDS011;44361;51.476;5.700;2022-09-09T04:57:52;10.82;;;3.88;;
58581;SDS011;44361;51.476;5.700;2022-09-09T05:00:17;9.75;;;3.38;;
58581;SDS011;44361;51.476;5.700;2022-09-09T05:02:43;12.88;;;3.60;;
58581;SDS011;44361;51.476;5.700;2022-09-09T05:05:09;9.15;;;3.97;;
58581;SDS011;44361;51.476;5.700;2022-09-09T05:07:36;8.75;;;3.70;;
58581;SDS011;44361;51.476;5.700;2022-09-09T05:10:02;7.72;;;2.90;;
58581;SDS011;44361;51.476;5.700;2022-09-09T05:12:30;12.55;;;3.72;;
58581;SDS011;44361;51.476;5.700;2022-09-09T05:14:56;11.75;;;3.72;;
58581;SDS011;44361;51.476;5.700;2022-09-09T05:17:21;15.15;;;3.63;;
58581;SDS011;44361;51.476;5.700;2022-09-09T05:19:47;13.32;;;3.65;;
58581;SDS011;44361;51.476;5.700;2022-09-09T05:22:17;7.75;;;3.67;;
58581;SDS011;44361;51.476;5.700;2022-09-09T05:24:45;13.70;;;3.58;;
58581;SDS011;44361;51.476;5.700;2022-09-09T05:27:11;12.90;;;3.20;;
58581;SDS011;44361;51.476;5.700;2022-09-09T05:29:37;17.73;;;3.70;;
58581;SDS011;44361;51.476;5.700;2022-09-09T05:32:03;11.48;;;3.65;;
58581;SDS011;44361;51.476;5.700;2022-09-09T05:34:29;13.73;;;3.67;;
58581;SDS011;44361;51.476;5.700;2022-09-09T05:36:54;9.50;;;3.38;;
58581;SDS011;44361;51.476;5.700;2022-09-09T05:39:20;7.40;;;3.42;;
58581;SDS011;44361;51.476;5.700;2022-09-09T05:41:45;9.85;;;3.25;;
58581;SDS011;44361;51.476;5.700;2022-09-09T05:44:11;17.00;;;3.80;;
58581;SDS011;44361;51.476;5.700;2022-09-09T05:46:38;10.73;;;3.40;;
58581;SDS011;44361;51.476;5.700;2022-09-09T05:49:04;7.95;;;3.10;;
58581;SDS011;44361;51.476;5.700;2022-09-09T05:51:30;10.65;;;3.30;;
58581;SDS011;44361;51.476;5.700;2022-09-09T05:53:56;12.52;;;3.63;;
58581;SDS011;44361;51.476;5.700;2022-09-09T05:56:26;12.20;;;4.10;;
58581;SDS011;44361;51.476;5.700;2022-09-09T05:58:53;8.77;;;4.22;;
58581;SDS011;44361;51.476;5.700;2022-09-09T06:01:21;12.32;;;3.67;;
58581;SDS011;44361;51.476;5.700;2022-09-09T06:03:49;12.77;;;3.30;;
58581;SDS011;44361;51.476;5.700;2022-09-09T06:06:16;11.82;;;3.40;;
58581;SDS011;44361;51.476;5.700;2022-09-09T06:08:51;10.13;;;3.30;;
58581;SDS011;44361;51.476;5.700;2022-09-09T06:11:19;10.70;;;3.72;;
58581;SDS011;44361;51.476;5.700;2022-09-09T06:13:46;11.38;;;3.85;;
58581;SDS011;44361;51.476;5.700;2022-09-09T06:16:16;12.70;;;3.72;;
58581;SDS011;44361;51.476;5.700;2022-09-09T06:18:43;7.80;;;3.10;;
58581;SDS011;44361;51.476;5.700;2022-09-09T06:21:11;13.80;;;2.88;;
58581;SDS011;44361;51.476;5.700;2022-09-09T06:23:41;10.38;;;3.10;;
58581;SDS011;44361;51.476;5.700;2022-09-09T06:26:09;8.68;;;2.58;;
58581;SDS011;44361;51.476;5.700;2022-09-09T06:28:46;9.07;;;2.65;;
58581;SDS011;44361;51.476;5.700;2022-09-09T06:31:13;7.90;;;3.17;;
58581;SDS011;44361;51.476;5.700;2022-09-09T06:33:42;7.93;;;3.00;;
58581;SDS011;44361;51.476;5.700;2022-09-09T06:39:04;11.55;;;3.00;;
58581;SDS011;44361;51.476;5.700;2022-09-09T06:41:31;9.35;;;3.03;;
58581;SDS011;44361;51.476;5.700;2022-09-09T06:43:58;10.25;;;3.22;;
58581;SDS011;44361;51.476;5.700;2022-09-09T06:46:25;12.05;;;2.88;;
58581;SDS011;44361;51.476;5.700;2022-09-09T06:48:52;7.65;;;3.03;;
58581;SDS011;44361;51.476;5.700;2022-09-09T06:51:25;9.93;;;2.53;;
58581;SDS011;44361;51.476;5.700;2022-09-09T06:53:56;12.60;;;3.05;;
58581;SDS011;44361;51.476;5.700;2022-09-09T06:58:52;7.45;;;2.50;;
58581;SDS011;44361;51.476;5.700;2022-09-09T07:01:20;7.85;;;2.40;;
58581;SDS011;44361;51.476;5.700;2022-09-09T07:03:50;7.93;;;2.17;;
58581;SDS011;44361;51.476;5.700;2022-09-09T07:06:19;9.05;;;2.42;;
58581;SDS011;44361;51.476;5.700;2022-09-09T07:08:50;10.00;;;2.22;;
58581;SDS011;44361;51.476;5.700;2022-09-09T07:11:17;13.85;;;2.40;;
58581;SDS011;44361;51.476;5.700;2022-09-09T07:13:44;10.35;;;2.42;;
58581;SDS011;44361;51.476;5.700;2022-09-09T07:16:11;12.77;;;2.20;;
58581;SDS011;44361;51.476;5.700;2022-09-09T07:18:40;7.50;;;2.35;;
58581;SDS011;44361;51.476;5.700;2022-09-09T07:21:07;15.75;;;2.15;;
58581;SDS011;44361;51.476;5.700;2022-09-09T07:23:34;6.80;;;2.15;;
58581;SDS011;44361;51.476;5.700;2022-09-09T07:26:00;7.05;;;1.70;;
58581;SDS011;44361;51.476;5.700;2022-09-09T07:28:27;6.03;;;1.42;;
58581;SDS011;44361;51.476;5.700;2022-09-09T07:31:00;8.52;;;1.63;;
58581;SDS011;44361;51.476;5.700;2022-09-09T07:33:30;2.67;;;1.38;;
58581;SDS011;44361;51.476;5.700;2022-09-09T07:36:33;5.43;;;1.58;;
58581;SDS011;44361;51.476;5.700;2022-09-09T07:38:53;9.40;;;1.80;;
58581;SDS011;44361;51.476;5.700;2022-09-09T07:41:22;8.20;;;1.70;;
58581;SDS011;44361;51.476;5.700;2022-09-09T07:43:52;4.40;;;1.50;;
58581;SDS011;44361;51.476;5.700;2022-09-09T07:46:22;5.47;;;1.60;;
58581;SDS011;44361;51.476;5.700;2022-09-09T07:48:51;4.15;;;1.50;;
58581;SDS011;44361;51.476;5.700;2022-09-09T07:51:19;6.43;;;1.50;;
58581;SDS011;44361;51.476;5.700;2022-09-09T07:53:47;6.97;;;1.92;;
58581;SDS011;44361;51.476;5.700;2022-09-09T07:56:16;11.02;;;1.67;;
58581;SDS011;44361;51.476;5.700;2022-09-09T07:58:44;8.23;;;1.75;;
58581;SDS011;44361;51.476;5.700;2022-09-09T08:01:13;9.40;;;1.40;;
58581;SDS011;44361;51.476;5.700;2022-09-09T08:03:42;6.40;;;1.67;;
58581;SDS011;44361;51.476;5.700;2022-09-09T08:06:09;8.95;;;1.83;;
58581;SDS011;44361;51.476;5.700;2022-09-09T08:08:35;9.38;;;1.30;;
58581;SDS011;44361;51.476;5.700;2022-09-09T08:11:03;6.72;;;1.10;;
58581;SDS011;44361;51.476;5.700;2022-09-09T08:13:40;4.05;;;1.35;;
58581;SDS011;44361;51.476;5.700;2022-09-09T08:16:14;5.60;;;1.27;;
58581;SDS011;44361;51.476;5.700;2022-09-09T08:18:42;7.25;;;1.38;;
58581;SDS011;44361;51.476;5.700;2022-09-09T08:21:09;13.68;;;1.60;;
58581;SDS011;44361;51.476;5.700;2022-09-09T08:26:17;9.18;;;1.50;;
58581;SDS011;44361;51.476;5.700;2022-09-09T08:28:52;5.43;;;1.27;;
58581;SDS011;44361;51.476;5.700;2022-09-09T08:31:20;9.23;;;1.67;;
58581;SDS011;44361;51.476;5.700;2022-09-09T08:33:47;7.45;;;1.58;;
58581;SDS011;44361;51.476;5.700;2022-09-09T08:36:14;10.23;;;1.30;;
58581;SDS011;44361;51.476;5.700;2022-09-09T08:38:49;7.57;;;1.05;;
58581;SDS011;44361;51.476;5.700;2022-09-09T08:46:29;6.43;;;1.13;;
58581;SDS011;44361;51.476;5.700;2022-09-09T08:52:25;7.03;;;1.33;;
58581;SDS011;44361;51.476;5.700;2022-09-09T08:57:49;6.25;;;1.27;;
58581;SDS011;44361;51.476;5.700;2022-09-09T09:00:19;7.35;;;1.40;;
58581;SDS011;44361;51.476;5.700;2022-09-09T09:02:54;10.75;;;1.65;;
58581;SDS011;44361;51.476;5.700;2022-09-09T09:08:51;8.00;;;1.17;;
58581;SDS011;44361;51.476;5.700;2022-09-09T09:11:16;6.40;;;1.35;;
58581;SDS011;44361;51.476;5.700;2022-09-09T09:14:04;5.00;;;1.20;;
58581;SDS011;44361;51.476;5.700;2022-09-09T09:17:04;6.75;;;1.30;;
58581;SDS011;44361;51.476;5.700;2022-09-09T09:19:24;7.72;;;1.30;;
58581;SDS011;44361;51.476;5.700;2022-09-09T09:22:03;4.47;;;1.17;;
58581;SDS011;44361;51.476;5.700;2022-09-09T09:24:50;7.43;;;1.52;;
58581;SDS011;44361;51.476;5.700;2022-09-09T09:27:19;7.82;;;1.35;;
58581;SDS011;44361;51.476;5.700;2022-09-09T09:29:51;7.78;;;1.40;;
58581;SDS011;44361;51.476;5.700;2022-09-09T09:32:21;8.73;;;1.25;;
58581;SDS011;44361;51.476;5.700;2022-09-09T09:34:57;7.00;;;1.45;;
58581;SDS011;44361;51.476;5.700;2022-09-09T09:37:28;7.50;;;1.50;;
58581;SDS011;44361;51.476;5.700;2022-09-09T09:39:56;5.10;;;1.02;;
58581;SDS011;44361;51.476;5.700;2022-09-09T09:42:32;7.32;;;1.55;;
58581;SDS011;44361;51.476;5.700;2022-09-09T09:45:07;6.88;;;1.27;;
58581;SDS011;44361;51.476;5.700;2022-09-09T09:47:57;8.68;;;1.60;;
58581;SDS011;44361;51.476;5.700;2022-09-09T09:50:30;7.03;;;1.48;;
58581;SDS011;44361;51.476;5.700;2022-09-09T09:52:58;7.05;;;1.45;;
58581;SDS011;44361;51.476;5.700;2022-09-09T09:55:25;8.13;;;1.60;;
58581;SDS011;44361;51.476;5.700;2022-09-09T09:57:59;8.38;;;1.23;;
58581;SDS011;44361;51.476;5.700;2022-09-09T10:00:27;6.45;;;1.70;;
58581;SDS011;44361;51.476;5.700;2022-09-09T10:02:52;9.40;;;1.15;;
58581;SDS011;44361;51.476;5.700;2022-09-09T10:10:49;5.10;;;1.23;;
58581;SDS011;44361;51.476;5.700;2022-09-09T10:13:33;4.25;;;1.23;;
58581;SDS011;44361;51.476;5.700;2022-09-09T10:16:25;10.43;;;2.03;;
58581;SDS011;44361;51.476;5.700;2022-09-09T10:24:07;4.00;;;1.10;;
58581;SDS011;44361;51.476;5.700;2022-09-09T10:32:53;5.95;;;1.38;;
58581;SDS011;44361;51.476;5.700;2022-09-09T10:38:29;5.30;;;0.88;;
58581;SDS011;44361;51.476;5.700;2022-09-09T10:41:15;6.80;;;1.45;;
58581;SDS011;44361;51.476;5.700;2022-09-09T10:49:22;11.50;;;1.15;;
58581;SDS011;44361;51.476;5.700;2022-09-09T10:57:08;8.07;;;1.88;;
58581;SDS011;44361;51.476;5.700;2022-09-09T10:59:57;8.50;;;1.80;;
58581;SDS011;44361;51.476;5.700;2022-09-09T11:02:30;9.05;;;1.98;;
58581;SDS011;44361;51.476;5.700;2022-09-09T11:07:40;8.30;;;2.70;;
58581;SDS011;44361;51.476;5.700;2022-09-09T11:13:14;11.80;;;2.38;;
58581;SDS011;44361;51.476;5.700;2022-09-09T11:16:19;9.45;;;3.05;;
58581;SDS011;44361;51.476;5.700;2022-09-09T11:19:02;4.85;;;2.38;;
58581;SDS011;44361;51.476;5.700;2022-09-09T11:21:42;6.35;;;2.53;;
58581;SDS011;44361;51.476;5.700;2022-09-09T11:24:22;8.65;;;2.20;;
58581;SDS011;44361;51.476;5.700;2022-09-09T11:29:43;4.57;;;1.58;;
58581;SDS011;44361;51.476;5.700;2022-09-09T11:32:26;6.53;;;1.70;;
58581;SDS011;44361;51.476;5.700;2022-09-09T11:40:42;3.20;;;1.40;;
58581;SDS011;44361;51.476;5.700;2022-09-09T11:43:13;4.22;;;1.40;;
58581;SDS011;44361;51.476;5.700;2022-09-09T11:45:42;5.32;;;1.60;;
58581;SDS011;44361;51.476;5.700;2022-09-09T11:48:23;8.40;;;1.73;;
58581;SDS011;44361;51.476;5.700;2022-09-09T11:51:01;6.32;;;2.03;;
58581;SDS011;44361;51.476;5.700;2022-09-09T11:53:27;4.43;;;1.50;;
58581;SDS011;44361;51.476;5.700;2022-09-09T11:56:06;9.93;;;1.80;;
58581;SDS011;44361;51.476;5.700;2022-09-09T11:58:38;6.10;;;1.55;;
58581;SDS011;44361;51.476;5.700;2022-09-09T12:01:26;3.05;;;1.50;;
58581;SDS011;44361;51.476;5.700;2022-09-09T12:06:45;6.25;;;1.65;;
58581;SDS011;44361;51.476;5.700;2022-09-09T12:11:44;9.38;;;1.60;;
58581;SDS011;44361;51.476;5.700;2022-09-09T12:19:39;3.17;;;1.23;;
58581;SDS011;44361;51.476;5.700;2022-09-09T12:22:07;5.22;;;1.52;;
58581;SDS011;44361;51.476;5.700;2022-09-09T12:27:35;7.97;;;1.50;;
58581;SDS011;44361;51.476;5.700;2022-09-09T12:30:10;4.80;;;1.58;;
58581;SDS011;44361;51.476;5.700;2022-09-09T12:32:39;5.07;;;1.38;;
58581;SDS011;44361;51.476;5.700;2022-09-09T12:35:12;4.45;;;1.40;;
58581;SDS011;44361;51.476;5.700;2022-09-09T12:37:47;5.47;;;1.30;;
58581;SDS011;44361;51.476;5.700;2022-09-09T12:40:22;4.50;;;2.60;;
58581;SDS011;44361;51.476;5.700;2022-09-09T12:42:52;3.88;;;1.95;;
58581;SDS011;44361;51.476;5.700;2022-09-09T12:45:23;11.00;;;4.45;;
58581;SDS011;44361;51.476;5.700;2022-09-09T12:50:29;5.60;;;1.48;;
58581;SDS011;44361;51.476;5.700;2022-09-09T12:52:58;6.35;;;1.88;;
58581;SDS011;44361;51.476;5.700;2022-09-09T12:55:31;6.72;;;1.58;;
58581;SDS011;44361;51.476;5.700;2022-09-09T12:58:00;3.80;;;1.45;;
58581;SDS011;44361;51.476;5.700;2022-09-09T13:00:30;4.25;;;1.42;;
58581;SDS011;44361;51.476;5.700;2022-09-09T13:02:57;6.40;;;1.42;;
58581;SDS011;44361;51.476;5.700;2022-09-09T13:07:51;4.88;;;1.55;;
58581;SDS011;44361;51.476;5.700;2022-09-09T13:10:24;5.32;;;1.30;;
58581;SDS011;44361;51.476;5.700;2022-09-09T13:12:53;5.90;;;1.20;;
58581;SDS011;44361;51.476;5.700;2022-09-09T13:15:21;2.70;;;1.05;;
58581;SDS011;44361;51.476;5.700;2022-09-09T13:17:51;4.97;;;1.27;;
58581;SDS011;44361;51.476;5.700;2022-09-09T13:20:20;4.43;;;1.15;;
58581;SDS011;44361;51.476;5.700;2022-09-09T13:22:48;4.38;;;1.33;;
58581;SDS011;44361;51.476;5.700;2022-09-09T13:25:19;3.45;;;1.25;;
58581;SDS011;44361;51.476;5.700;2022-09-09T13:27:54;4.40;;;1.40;;
58581;SDS011;44361;51.476;5.700;2022-09-09T13:30:21;1.63;;;0.80;;
58581;SDS011;44361;51.476;5.700;2022-09-09T13:33:00;5.13;;;1.35;;
58581;SDS011;44361;51.476;5.700;2022-09-09T13:35:30;3.90;;;1.27;;
58581;SDS011;44361;51.476;5.700;2022-09-09T13:37:56;4.72;;;1.23;;
58581;SDS011;44361;51.476;5.700;2022-09-09T13:40:23;4.55;;;0.90;;
58581;SDS011;44361;51.476;5.700;2022-09-09T13:42:56;4.78;;;0.82;;
58581;SDS011;44361;51.476;5.700;2022-09-09T13:45:24;3.93;;;1.00;;
58581;SDS011;44361;51.476;5.700;2022-09-09T13:47:54;6.95;;;1.10;;
58581;SDS011;44361;51.476;5.700;2022-09-09T13:52:48;4.40;;;1.08;;
58581;SDS011;44361;51.476;5.700;2022-09-09T13:55:16;2.30;;;0.88;;
58581;SDS011;44361;51.476;5.700;2022-09-09T13:58:01;3.22;;;1.00;;
58581;SDS011;44361;51.476;5.700;2022-09-09T14:00:30;2.13;;;0.82;;
58581;SDS011;44361;51.476;5.700;2022-09-09T14:02:57;3.00;;;1.00;;
58581;SDS011;44361;51.476;5.700;2022-09-09T14:05:27;3.63;;;1.08;;
58581;SDS011;44361;51.476;5.700;2022-09-09T14:07:53;4.78;;;1.08;;
58581;SDS011;44361;51.476;5.700;2022-09-09T14:10:19;2.75;;;0.82;;
58581;SDS011;44361;51.476;5.700;2022-09-09T14:12:45;7.25;;;1.10;;
58581;SDS011;44361;51.476;5.700;2022-09-09T14:15:11;3.80;;;0.77;;
58581;SDS011;44361;51.476;5.700;2022-09-09T14:17:37;2.88;;;0.70;;
58581;SDS011;44361;51.476;5.700;2022-09-09T14:20:04;4.47;;;0.90;;
58581;SDS011;44361;51.476;5.700;2022-09-09T14:22:33;2.67;;;0.80;;
58581;SDS011;44361;51.476;5.700;2022-09-09T14:24:59;4.65;;;1.20;;
58581;SDS011;44361;51.476;5.700;2022-09-09T14:27:24;2.97;;;0.77;;
58581;SDS011;44361;51.476;5.700;2022-09-09T14:29:53;2.50;;;1.00;;
58581;SDS011;44361;51.476;5.700;2022-09-09T14:32:19;4.10;;;0.82;;
58581;SDS011;44361;51.476;5.700;2022-09-09T14:34:45;3.90;;;1.00;;
58581;SDS011;44361;51.476;5.700;2022-09-09T14:37:14;3.05;;;0.82;;
58581;SDS011;44361;51.476;5.700;2022-09-09T14:39:41;5.05;;;1.05;;
58581;SDS011;44361;51.476;5.700;2022-09-09T14:42:08;3.95;;;0.90;;
58581;SDS011;44361;51.476;5.700;2022-09-09T14:44:36;3.15;;;0.80;;
58581;SDS011;44361;51.476;5.700;2022-09-09T14:47:03;4.10;;;1.17;;
58581;SDS011;44361;51.476;5.700;2022-09-09T14:49:35;3.80;;;0.90;;
58581;SDS011;44361;51.476;5.700;2022-09-09T14:52:01;3.95;;;0.80;;
58581;SDS011;44361;51.476;5.700;2022-09-09T14:54:28;3.42;;;0.90;;
58581;SDS011;44361;51.476;5.700;2022-09-09T14:56:54;2.42;;;0.68;;
58581;SDS011;44361;51.476;5.700;2022-09-09T14:59:19;3.67;;;1.08;;
58581;SDS011;44361;51.476;5.700;2022-09-09T15:01:45;5.07;;;1.25;;
58581;SDS011;44361;51.476;5.700;2022-09-09T15:04:11;5.05;;;0.85;;
58581;SDS011;44361;51.476;5.700;2022-09-09T15:06:37;4.72;;;0.85;;
58581;SDS011;44361;51.476;5.700;2022-09-09T15:09:04;4.30;;;1.30;;
58581;SDS011;44361;51.476;5.700;2022-09-09T15:11:31;3.72;;;0.85;;
58581;SDS011;44361;51.476;5.700;2022-09-09T15:14:02;4.72;;;0.80;;
58581;SDS011;44361;51.476;5.700;2022-09-09T15:16:28;6.45;;;1.23;;
58581;SDS011;44361;51.476;5.700;2022-09-09T15:18:55;3.55;;;0.85;;
58581;SDS011;44361;51.476;5.700;2022-09-09T15:21:23;4.65;;;0.85;;
58581;SDS011;44361;51.476;5.700;2022-09-09T15:23:50;5.22;;;1.20;;
58581;SDS011;44361;51.476;5.700;2022-09-09T15:26:17;3.95;;;1.20;;
58581;SDS011;44361;51.476;5.700;2022-09-09T15:28:43;4.63;;;1.15;;
58581;SDS011;44361;51.476;5.700;2022-09-09T15:31:14;4.05;;;1.10;;
58581;SDS011;44361;51.476;5.700;2022-09-09T15:33:52;2.83;;;0.90;;
58581;SDS011;44361;51.476;5.700;2022-09-09T15:36:26;2.80;;;0.77;;
58581;SDS011;44361;51.476;5.700;2022-09-09T15:39:02;2.15;;;0.80;;
58581;SDS011;44361;51.476;5.700;2022-09-09T15:41:29;4.55;;;1.20;;
58581;SDS011;44361;51.476;5.700;2022-09-09T15:43:56;2.72;;;0.98;;
58581;SDS011;44361;51.476;5.700;2022-09-09T15:49:08;2.58;;;0.95;;
58581;SDS011;44361;51.476;5.700;2022-09-09T15:51:36;3.67;;;1.20;;
58581;SDS011;44361;51.476;5.700;2022-09-09T15:54:10;1.90;;;0.87;;
58581;SDS011;44361;51.476;5.700;2022-09-09T15:56:41;5.93;;;1.13;;
58581;SDS011;44361;51.476;5.700;2022-09-09T15:59:08;5.40;;;0.80;;
58581;SDS011;44361;51.476;5.700;2022-09-09T16:01:33;3.55;;;0.95;;
58581;SDS011;44361;51.476;5.700;2022-09-09T16:03:59;3.03;;;0.98;;
58581;SDS011;44361;51.476;5.700;2022-09-09T16:06:26;3.90;;;1.17;;
58581;SDS011;44361;51.476;5.700;2022-09-09T16:08:53;3.58;;;1.23;;
58581;SDS011;44361;51.476;5.700;2022-09-09T16:11:21;3.45;;;1.20;;
58581;SDS011;44361;51.476;5.700;2022-09-09T16:13:48;6.25;;;1.40;;
58581;SDS011;44361;51.476;5.700;2022-09-09T16:16:16;5.85;;;1.02;;
58581;SDS011;44361;51.476;5.700;2022-09-09T16:18:45;4.65;;;0.90;;
58581;SDS011;44361;51.476;5.700;2022-09-09T16:21:13;4.00;;;1.10;;
58581;SDS011;44361;51.476;5.700;2022-09-09T16:23:44;3.85;;;1.10;;
58581;SDS011;44361;51.476;5.700;2022-09-09T16:26:13;7.55;;;1.48;;
58581;SDS011;44361;51.476;5.700;2022-09-09T16:28:40;4.30;;;1.10;;
58581;SDS011;44361;51.476;5.700;2022-09-09T16:31:10;5.05;;;1.08;;
58581;SDS011;44361;51.476;5.700;2022-09-09T16:33:38;3.28;;;0.80;;
58581;SDS011;44361;51.476;5.700;2022-09-09T16:36:05;3.15;;;0.60;;
58581;SDS011;44361;51.476;5.700;2022-09-09T16:38:35;1.13;;;0.40;;
58581;SDS011;44361;51.476;5.700;2022-09-09T16:41:02;0.65;;;0.40;;
58581;SDS011;44361;51.476;5.700;2022-09-09T16:43:30;1.83;;;0.50;;
58581;SDS011;44361;51.476;5.700;2022-09-09T16:45:55;2.78;;;0.63;;
58581;SDS011;44361;51.476;5.700;2022-09-09T16:48:21;3.10;;;0.90;;
58581;SDS011;44361;51.476;5.700;2022-09-09T16:50:46;4.05;;;1.35;;
58581;SDS011;44361;51.476;5.700;2022-09-09T16:53:12;7.55;;;5.68;;
58581;SDS011;44361;51.476;5.700;2022-09-09T16:55:39;5.55;;;2.20;;
58581;SDS011;44361;51.476;5.700;2022-09-09T16:58:06;6.68;;;1.30;;
58581;SDS011;44361;51.476;5.700;2022-09-09T17:00:33;7.97;;;1.88;;
58581;SDS011;44361;51.476;5.700;2022-09-09T17:02:59;4.65;;;2.20;;
58581;SDS011;44361;51.476;5.700;2022-09-09T17:05:24;6.05;;;2.17;;
58581;SDS011;44361;51.476;5.700;2022-09-09T17:07:50;4.80;;;1.10;;
58581;SDS011;44361;51.476;5.700;2022-09-09T17:10:16;4.20;;;1.15;;
58581;SDS011;44361;51.476;5.700;2022-09-09T17:12:42;30.50;;;15.45;;